John C. Munro Hamilton International Airport
CYHM : now visible

Airfield :











YOU CAN JOIN US ON...

 
LOGIN :

Register | Disclaimer

   EN    FR    IT 

 









Legend :    VFR   Marginal VFR   IFR   Intensive IFR   Very Intensive IFR
Visi :
Ceiling :
>= 8 km
>= 3000ft
5 to 8 km
1000 to 3000 ft
1500m to 5 km
500 to 1000 ft
800 to 1500m
200 to 500 ft
< 800m
< 200 ft
Symbols :   Thunderstorms  Fog  Heavy snow  Heavy precipitations  Wind > 20 kt






- Airport Elevation : 780 ft
- IATA code : YHM


CYHM - John C. Munro Hamilton International

CURRENT METAR :
  • 040800Z 22007KT 15SM BKN034 M03/M06 A3024 RMK SC7 SLP253

EXPIRED METARs :
  • 040700Z 24011G17KT 15SM OVC032 M01/M06 A3023 RMK SC8 SLP250
  • 040600Z 25009G16KT 15SM OVC030 M01/M07 A3023 RMK SC8 SLP247

TAF TAF CYHM
Valid from the 04 at 06:00 until the 05 at 06:00 UTC


040540Z 0406/0506 26010KT P6SM BKN030
TEMPO 0406/0415 SCT040
FM041500 24010G20KT P6SM BKN120
FM041800 24015G25KT P6SM FEW025
BECMG 0422/0424 23012KT
FM050100 23012KT P6SM BKN015 RMK NXT FCST BY 041200Z
CZYZ FIR / North America



MET'MAP, your aeronautical weather chart ! - Copyright ORBIFLY December 2007 - Disclaimer

ORBIFLY MET'MAP TEAM :

Programming & Development : Alexandra Zaïnal
Original concept : Baudouin d'Aumeries
Technical & hardware support : Manuel Goepfert
Assistance : Marc-Olivier Méhu




SOURCES & CREDITS :

   NOAA       Earth
Advisory